sensor_id;sensor_type;location;lat;lon;timestamp;pressure;altitude;pressure_sealevel;temperature
66027;BMP280;56312;55.976;37.136;2022-07-23T00:04:56;57634.44;;;-135.08
66027;BMP280;56312;55.976;37.136;2022-07-23T00:10:02;57634.44;;;-135.08
66027;BMP280;56312;55.976;37.136;2022-07-23T00:15:08;57634.44;;;-135.08
66027;BMP280;56312;55.976;37.136;2022-07-23T00:20:14;57634.44;;;-135.08
66027;BMP280;56312;55.976;37.136;2022-07-23T00:25:21;57634.44;;;-135.08
66027;BMP280;56312;55.976;37.136;2022-07-23T00:30:28;57634.44;;;-135.08
66027;BMP280;56312;55.976;37.136;2022-07-23T00:35:36;57634.44;;;-135.08
66027;BMP280;56312;55.976;37.136;2022-07-23T00:40:42;57634.44;;;-135.08
66027;BMP280;56312;55.976;37.136;2022-07-23T00:45:48;57634.44;;;-135.08
66027;BMP280;56312;55.976;37.136;2022-07-23T00:50:54;57634.44;;;-135.08
66027;BMP280;56312;55.976;37.136;2022-07-23T00:56:00;57634.44;;;-135.08
66027;BMP280;56312;55.976;37.136;2022-07-23T01:01:06;57634.44;;;-135.08
66027;BMP280;56312;55.976;37.136;2022-07-23T01:06:14;57634.44;;;-135.08
66027;BMP280;56312;55.976;37.136;2022-07-23T01:11:39;57634.44;;;-135.08
66027;BMP280;56312;55.976;37.136;2022-07-23T01:16:47;57634.44;;;-135.08
66027;BMP280;56312;55.976;37.136;2022-07-23T01:21:53;57634.44;;;-135.08
66027;BMP280;56312;55.976;37.136;2022-07-23T01:27:00;57634.44;;;-135.08
66027;BMP280;56312;55.976;37.136;2022-07-23T01:32:06;57634.44;;;-135.08
66027;BMP280;56312;55.976;37.136;2022-07-23T01:37:12;57634.44;;;-135.08
66027;BMP280;56312;55.976;37.136;2022-07-23T01:42:18;57634.44;;;-135.08
66027;BMP280;56312;55.976;37.136;2022-07-23T01:47:24;57634.44;;;-135.08
66027;BMP280;56312;55.976;37.136;2022-07-23T01:52:31;57634.44;;;-135.08
66027;BMP280;56312;55.976;37.136;2022-07-23T01:57:37;57634.44;;;-135.08
66027;BMP280;56312;55.976;37.136;2022-07-23T02:02:43;57634.44;;;-135.08
66027;BMP280;56312;55.976;37.136;2022-07-23T02:07:50;57634.44;;;-135.08
66027;BMP280;56312;55.976;37.136;2022-07-23T02:12:56;57634.44;;;-135.08
66027;BMP280;56312;55.976;37.136;2022-07-23T02:18:02;57634.44;;;-135.08
66027;BMP280;56312;55.976;37.136;2022-07-23T02:23:08;57634.44;;;-135.08
66027;BMP280;56312;55.976;37.136;2022-07-23T02:28:14;57634.44;;;-135.08
66027;BMP280;56312;55.976;37.136;2022-07-23T02:33:20;57634.44;;;-135.08
66027;BMP280;56312;55.976;37.136;2022-07-23T02:38:26;57634.44;;;-135.08
66027;BMP280;56312;55.976;37.136;2022-07-23T02:43:32;57634.44;;;-135.08
66027;BMP280;56312;55.976;37.136;2022-07-23T02:48:38;57634.44;;;-135.08
66027;BMP280;56312;55.976;37.136;2022-07-23T02:53:44;57634.44;;;-135.08
66027;BMP280;56312;55.976;37.136;2022-07-23T02:58:50;57634.44;;;-135.08
66027;BMP280;56312;55.976;37.136;2022-07-23T03:03:56;57634.44;;;-135.08
66027;BMP280;56312;55.976;37.136;2022-07-23T03:09:03;57634.44;;;-135.08
66027;BMP280;56312;55.976;37.136;2022-07-23T03:14:21;57634.44;;;-135.08
66027;BMP280;56312;55.976;37.136;2022-07-23T03:19:27;57634.44;;;-135.08
66027;BMP280;56312;55.976;37.136;2022-07-23T03:24:33;57634.44;;;-135.08
66027;BMP280;56312;55.976;37.136;2022-07-23T03:29:58;57634.44;;;-135.08
66027;BMP280;56312;55.976;37.136;2022-07-23T03:35:04;57634.44;;;-135.08
66027;BMP280;56312;55.976;37.136;2022-07-23T03:40:11;57634.44;;;-135.08
66027;BMP280;56312;55.976;37.136;2022-07-23T03:45:17;57634.44;;;-135.08
66027;BMP280;56312;55.976;37.136;2022-07-23T03:50:23;57634.44;;;-135.08
66027;BMP280;56312;55.976;37.136;2022-07-23T03:55:29;57634.44;;;-135.08
66027;BMP280;56312;55.976;37.136;2022-07-23T04:00:35;57634.44;;;-135.08
66027;BMP280;56312;55.976;37.136;2022-07-23T04:05:42;57634.44;;;-135.08
66027;BMP280;56312;55.976;37.136;2022-07-23T04:10:48;57634.44;;;-135.08
66027;BMP280;56312;55.976;37.136;2022-07-23T04:15:54;57634.44;;;-135.08
66027;BMP280;56312;55.976;37.136;2022-07-23T04:21:00;57634.44;;;-135.08
66027;BMP280;56312;55.976;37.136;2022-07-23T04:26:06;57634.44;;;-135.08
66027;BMP280;56312;55.976;37.136;2022-07-23T04:31:12;57634.44;;;-135.08
66027;BMP280;56312;55.976;37.136;2022-07-23T04:36:18;57634.44;;;-135.08
66027;BMP280;56312;55.976;37.136;2022-07-23T04:41:24;57634.44;;;-135.08
66027;BMP280;56312;55.976;37.136;2022-07-23T04:46:30;57634.44;;;-135.08
66027;BMP280;56312;55.976;37.136;2022-07-23T04:51:36;98855.78;;;20.10
66027;BMP280;56312;55.976;37.136;2022-07-23T04:56:42;98853.41;;;20.07
66027;BMP280;56312;55.976;37.136;2022-07-23T05:01:49;98851.50;;;20.09
66027;BMP280;56312;55.976;37.136;2022-07-23T05:06:55;98845.22;;;20.12
66027;BMP280;56312;55.976;37.136;2022-07-23T05:12:01;98848.53;;;20.14
66027;BMP280;56312;55.976;37.136;2022-07-23T05:17:08;98848.53;;;20.14
66027;BMP280;56312;55.976;37.136;2022-07-23T05:22:15;98862.41;;;20.14
66027;BMP280;56312;55.976;37.136;2022-07-23T05:27:21;98854.69;;;20.13
66027;BMP280;56312;55.976;37.136;2022-07-23T05:32:27;98860.72;;;20.13
66027;BMP280;56312;55.976;37.136;2022-07-23T05:37:34;98855.28;;;20.16
66027;BMP280;56312;55.976;37.136;2022-07-23T05:42:40;98850.81;;;20.18
66027;BMP280;56312;55.976;37.136;2022-07-23T05:47:50;98852.34;;;20.21
66027;BMP280;56312;55.976;37.136;2022-07-23T05:52:56;98857.44;;;20.22
66027;BMP280;56312;55.976;37.136;2022-07-23T05:58:21;98838.34;;;20.22
66027;BMP280;56312;55.976;37.136;2022-07-23T06:03:27;98846.28;;;20.20
66027;BMP280;56312;55.976;37.136;2022-07-23T06:13:58;98833.13;;;20.22
66027;BMP280;56312;55.976;37.136;2022-07-23T06:19:05;98826.72;;;20.26
66027;BMP280;56312;55.976;37.136;2022-07-23T06:24:11;98831.63;;;20.30
66027;BMP280;56312;55.976;37.136;2022-07-23T06:29:17;98830.66;;;20.31
66027;BMP280;56312;55.976;37.136;2022-07-23T06:34:24;98838.47;;;20.31
66027;BMP280;56312;55.976;37.136;2022-07-23T06:39:30;98833.38;;;20.30
66027;BMP280;56312;55.976;37.136;2022-07-23T06:44:37;98828.41;;;20.27
66027;BMP280;56312;55.976;37.136;2022-07-23T06:49:43;98830.88;;;20.28
66027;BMP280;56312;55.976;37.136;2022-07-23T06:54:50;57634.44;;;-135.08
66027;BMP280;56312;55.976;37.136;2022-07-23T06:59:56;57634.44;;;-135.08
66027;BMP280;56312;55.976;37.136;2022-07-23T07:05:03;57634.44;;;-135.08
66027;BMP280;56312;55.976;37.136;2022-07-23T07:10:09;57634.44;;;-135.08
66027;BMP280;56312;55.976;37.136;2022-07-23T07:15:16;57634.44;;;-135.08
66027;BMP280;56312;55.976;37.136;2022-07-23T07:20:22;57634.44;;;-135.08
66027;BMP280;56312;55.976;37.136;2022-07-23T07:25:29;57634.44;;;-135.08
66027;BMP280;56312;55.976;37.136;2022-07-23T07:30:35;57634.44;;;-135.08
66027;BMP280;56312;55.976;37.136;2022-07-23T07:35:42;57634.44;;;-135.08
66027;BMP280;56312;55.976;37.136;2022-07-23T07:40:48;57634.44;;;-135.08
66027;BMP280;56312;55.976;37.136;2022-07-23T07:45:54;57634.44;;;-135.08
66027;BMP280;56312;55.976;37.136;2022-07-23T07:51:01;57634.44;;;-135.08
66027;BMP280;56312;55.976;37.136;2022-07-23T07:56:07;57634.44;;;-135.08
66027;BMP280;56312;55.976;37.136;2022-07-23T08:01:14;57634.44;;;-135.08
66027;BMP280;56312;55.976;37.136;2022-07-23T08:06:20;57634.44;;;-135.08
66027;BMP280;56312;55.976;37.136;2022-07-23T08:11:26;57634.44;;;-135.08
66027;BMP280;56312;55.976;37.136;2022-07-23T08:16:33;57634.44;;;-135.08
66027;BMP280;56312;55.976;37.136;2022-07-23T08:21:57;57634.44;;;-135.08
66027;BMP280;56312;55.976;37.136;2022-07-23T08:27:04;57634.44;;;-135.08
66027;BMP280;56312;55.976;37.136;2022-07-23T08:32:10;57634.44;;;-135.08
66027;BMP280;56312;55.976;37.136;2022-07-23T08:37:16;57634.44;;;-135.08
66027;BMP280;56312;55.976;37.136;2022-07-23T08:42:23;57634.44;;;-135.08
66027;BMP280;56312;55.976;37.136;2022-07-23T08:47:29;57634.44;;;-135.08
66027;BMP280;56312;55.976;37.136;2022-07-23T08:52:37;57634.44;;;-135.08
66027;BMP280;56312;55.976;37.136;2022-07-23T08:57:49;57634.44;;;-135.08
66027;BMP280;56312;55.976;37.136;2022-07-23T09:02:57;57634.44;;;-135.08
66027;BMP280;56312;55.976;37.136;2022-07-23T09:08:07;57634.44;;;-135.08
66027;BMP280;56312;55.976;37.136;2022-07-23T09:18:55;98799.25;;;21.07
66027;BMP280;56312;55.976;37.136;2022-07-23T09:24:09;98804.84;;;21.13
66027;BMP280;56312;55.976;37.136;2022-07-23T09:29:26;98795.56;;;21.20
66027;BMP280;56312;55.976;37.136;2022-07-23T09:34:33;98791.28;;;21.19
66027;BMP280;56312;55.976;37.136;2022-07-23T09:39:45;98785.34;;;21.17
66027;BMP280;56312;55.976;37.136;2022-07-23T09:44:55;98791.41;;;21.17
66027;BMP280;56312;55.976;37.136;2022-07-23T09:50:04;98782.59;;;21.29
66027;BMP280;56312;55.976;37.136;2022-07-23T09:55:14;98783.19;;;21.53
66027;BMP280;56312;55.976;37.136;2022-07-23T10:00:22;98777.03;;;21.74
66027;BMP280;56312;55.976;37.136;2022-07-23T10:05:30;98765.31;;;21.89
66027;BMP280;56312;55.976;37.136;2022-07-23T10:10:49;98764.88;;;22.04
66027;BMP280;56312;55.976;37.136;2022-07-23T10:15:57;98756.91;;;22.15
66027;BMP280;56312;55.976;37.136;2022-07-23T10:21:05;98759.44;;;22.25
66027;BMP280;56312;55.976;37.136;2022-07-23T10:32:36;98751.47;;;22.66
66027;BMP280;56312;55.976;37.136;2022-07-23T10:37:50;98751.34;;;22.76
66027;BMP280;56312;55.976;37.136;2022-07-23T10:43:00;98751.81;;;22.81
66027;BMP280;56312;55.976;37.136;2022-07-23T10:48:14;98752.88;;;22.79
66027;BMP280;56312;55.976;37.136;2022-07-23T10:53:25;98753.25;;;22.74
66027;BMP280;56312;55.976;37.136;2022-07-23T10:58:48;98745.53;;;22.73
66027;BMP280;56312;55.976;37.136;2022-07-23T11:03:55;98739.19;;;22.66
66027;BMP280;56312;55.976;37.136;2022-07-23T11:09:25;98737.00;;;22.62
66027;BMP280;56312;55.976;37.136;2022-07-23T11:35:36;57634.44;;;-135.08
66027;BMP280;56312;55.976;37.136;2022-07-23T11:40:45;57634.44;;;-135.08
66027;BMP280;56312;55.976;37.136;2022-07-23T11:45:56;57634.44;;;-135.08
66027;BMP280;56312;55.976;37.136;2022-07-23T11:51:05;57634.44;;;-135.08
66027;BMP280;56312;55.976;37.136;2022-07-23T11:56:11;57634.44;;;-135.08
66027;BMP280;56312;55.976;37.136;2022-07-23T12:01:18;57634.44;;;-135.08
66027;BMP280;56312;55.976;37.136;2022-07-23T12:06:24;57634.44;;;-135.08
66027;BMP280;56312;55.976;37.136;2022-07-23T12:11:30;57634.44;;;-135.08
66027;BMP280;56312;55.976;37.136;2022-07-23T12:16:37;57634.44;;;-135.08
66027;BMP280;56312;55.976;37.136;2022-07-23T12:21:43;57634.44;;;-135.08
66027;BMP280;56312;55.976;37.136;2022-07-23T12:27:11;57634.44;;;-135.08
66027;BMP280;56312;55.976;37.136;2022-07-23T12:37:32;57634.44;;;-135.08
66027;BMP280;56312;55.976;37.136;2022-07-23T12:42:41;57634.44;;;-135.08
66027;BMP280;56312;55.976;37.136;2022-07-23T12:53:17;57634.44;;;-135.08
66027;BMP280;56312;55.976;37.136;2022-07-23T13:03:58;57634.44;;;-135.08
66027;BMP280;56312;55.976;37.136;2022-07-23T13:09:06;57634.44;;;-135.08
66027;BMP280;56312;55.976;37.136;2022-07-23T13:14:14;57634.44;;;-135.08
66027;BMP280;56312;55.976;37.136;2022-07-23T13:19:22;57634.44;;;-135.08
66027;BMP280;56312;55.976;37.136;2022-07-23T13:24:47;57634.44;;;-135.08
66027;BMP280;56312;55.976;37.136;2022-07-23T13:29:54;57634.44;;;-135.08
66027;BMP280;56312;55.976;37.136;2022-07-23T13:35:00;57634.44;;;-135.08
66027;BMP280;56312;55.976;37.136;2022-07-23T13:40:25;57634.44;;;-135.08
66027;BMP280;56312;55.976;37.136;2022-07-23T13:45:32;57634.44;;;-135.08
66027;BMP280;56312;55.976;37.136;2022-07-23T13:50:40;57634.44;;;-135.08
66027;BMP280;56312;55.976;37.136;2022-07-23T13:55:48;57634.44;;;-135.08
66027;BMP280;56312;55.976;37.136;2022-07-23T14:00:56;57634.44;;;-135.08
66027;BMP280;56312;55.976;37.136;2022-07-23T14:06:02;57634.44;;;-135.08
66027;BMP280;56312;55.976;37.136;2022-07-23T14:16:37;57634.44;;;-135.08
66027;BMP280;56312;55.976;37.136;2022-07-23T14:21:44;57634.44;;;-135.08
66027;BMP280;56312;55.976;37.136;2022-07-23T14:26:50;57634.44;;;-135.08
66027;BMP280;56312;55.976;37.136;2022-07-23T14:31:57;57634.44;;;-135.08
66027;BMP280;56312;55.976;37.136;2022-07-23T14:37:04;57634.44;;;-135.08
66027;BMP280;56312;55.976;37.136;2022-07-23T14:42:11;57634.44;;;-135.08
66027;BMP280;56312;55.976;37.136;2022-07-23T14:47:17;57634.44;;;-135.08
66027;BMP280;56312;55.976;37.136;2022-07-23T14:52:29;57634.44;;;-135.08
66027;BMP280;56312;55.976;37.136;2022-07-23T14:57:36;57634.44;;;-135.08
66027;BMP280;56312;55.976;37.136;2022-07-23T15:02:42;57634.44;;;-135.08
66027;BMP280;56312;55.976;37.136;2022-07-23T15:07:49;57634.44;;;-135.08
66027;BMP280;56312;55.976;37.136;2022-07-23T15:12:55;57634.44;;;-135.08
66027;BMP280;56312;55.976;37.136;2022-07-23T15:18:02;57634.44;;;-135.08
66027;BMP280;56312;55.976;37.136;2022-07-23T15:23:09;57634.44;;;-135.08
66027;BMP280;56312;55.976;37.136;2022-07-23T15:28:15;57634.44;;;-135.08
66027;BMP280;56312;55.976;37.136;2022-07-23T15:33:21;57634.44;;;-135.08
66027;BMP280;56312;55.976;37.136;2022-07-23T15:38:28;57634.44;;;-135.08
66027;BMP280;56312;55.976;37.136;2022-07-23T15:43:34;57634.44;;;-135.08
66027;BMP280;56312;55.976;37.136;2022-07-23T15:48:41;57634.44;;;-135.08
66027;BMP280;56312;55.976;37.136;2022-07-23T15:53:47;57634.44;;;-135.08
66027;BMP280;56312;55.976;37.136;2022-07-23T15:58:53;57634.44;;;-135.08
66027;BMP280;56312;55.976;37.136;2022-07-23T16:04:00;57634.44;;;-135.08
66027;BMP280;56312;55.976;37.136;2022-07-23T16:09:06;57634.44;;;-135.08
66027;BMP280;56312;55.976;37.136;2022-07-23T16:14:13;98561.88;;;22.49
66027;BMP280;56312;55.976;37.136;2022-07-23T16:19:19;98570.56;;;22.50
66027;BMP280;56312;55.976;37.136;2022-07-23T16:24:26;98564.91;;;22.45
66027;BMP280;56312;55.976;37.136;2022-07-23T16:29:32;98558.56;;;22.38
66027;BMP280;56312;55.976;37.136;2022-07-23T16:34:39;98565.34;;;22.31
66027;BMP280;56312;55.976;37.136;2022-07-23T16:39:45;98564.22;;;22.24
66027;BMP280;56312;55.976;37.136;2022-07-23T16:44:52;98559.00;;;22.24
66027;BMP280;56312;55.976;37.136;2022-07-23T16:49:58;98553.75;;;22.24
66027;BMP280;56312;55.976;37.136;2022-07-23T16:55:05;98562.69;;;22.22
66027;BMP280;56312;55.976;37.136;2022-07-23T17:05:37;98569.72;;;22.12
66027;BMP280;56312;55.976;37.136;2022-07-23T17:10:43;98560.91;;;22.04
66027;BMP280;56312;55.976;37.136;2022-07-23T17:15:51;57634.44;;;-135.08
66027;BMP280;56312;55.976;37.136;2022-07-23T17:20:58;57634.44;;;-135.08
66027;BMP280;56312;55.976;37.136;2022-07-23T17:26:04;57634.44;;;-135.08
66027;BMP280;56312;55.976;37.136;2022-07-23T17:31:11;57634.44;;;-135.08
66027;BMP280;56312;55.976;37.136;2022-07-23T17:36:18;57634.44;;;-135.08
66027;BMP280;56312;55.976;37.136;2022-07-23T17:41:24;57634.44;;;-135.08
66027;BMP280;56312;55.976;37.136;2022-07-23T17:46:30;57634.44;;;-135.08
66027;BMP280;56312;55.976;37.136;2022-07-23T17:51:37;57634.44;;;-135.08
66027;BMP280;56312;55.976;37.136;2022-07-23T17:56:43;57634.44;;;-135.08
66027;BMP280;56312;55.976;37.136;2022-07-23T18:01:50;57634.44;;;-135.08
66027;BMP280;56312;55.976;37.136;2022-07-23T18:07:01;57634.44;;;-135.08
66027;BMP280;56312;55.976;37.136;2022-07-23T18:12:08;57634.44;;;-135.08
66027;BMP280;56312;55.976;37.136;2022-07-23T18:17:15;57634.44;;;-135.08
66027;BMP280;56312;55.976;37.136;2022-07-23T18:22:22;57634.44;;;-135.08
66027;BMP280;56312;55.976;37.136;2022-07-23T18:27:28;57634.44;;;-135.08
66027;BMP280;56312;55.976;37.136;2022-07-23T18:32:37;57634.44;;;-135.08
66027;BMP280;56312;55.976;37.136;2022-07-23T18:37:44;57634.44;;;-135.08
66027;BMP280;56312;55.976;37.136;2022-07-23T18:42:51;57634.44;;;-135.08
66027;BMP280;56312;55.976;37.136;2022-07-23T18:48:00;57634.44;;;-135.08
66027;BMP280;56312;55.976;37.136;2022-07-23T18:53:09;57634.44;;;-135.08
66027;BMP280;56312;55.976;37.136;2022-07-23T18:58:16;57634.44;;;-135.08
66027;BMP280;56312;55.976;37.136;2022-07-23T19:03:23;57634.44;;;-135.08
66027;BMP280;56312;55.976;37.136;2022-07-23T19:08:30;57634.44;;;-135.08
66027;BMP280;56312;55.976;37.136;2022-07-23T19:13:37;57634.44;;;-135.08
66027;BMP280;56312;55.976;37.136;2022-07-23T19:18:45;57634.44;;;-135.08
66027;BMP280;56312;55.976;37.136;2022-07-23T19:23:53;57634.44;;;-135.08
66027;BMP280;56312;55.976;37.136;2022-07-23T19:29:00;57634.44;;;-135.08
66027;BMP280;56312;55.976;37.136;2022-07-23T19:34:07;57634.44;;;-135.08
66027;BMP280;56312;55.976;37.136;2022-07-23T19:39:13;57634.44;;;-135.08
66027;BMP280;56312;55.976;37.136;2022-07-23T19:44:20;57634.44;;;-135.08
66027;BMP280;56312;55.976;37.136;2022-07-23T19:49:27;57634.44;;;-135.08
66027;BMP280;56312;55.976;37.136;2022-07-23T19:54:34;57634.44;;;-135.08
66027;BMP280;56312;55.976;37.136;2022-07-23T19:59:40;57634.44;;;-135.08
66027;BMP280;56312;55.976;37.136;2022-07-23T20:04:47;57634.44;;;-135.08
66027;BMP280;56312;55.976;37.136;2022-07-23T20:09:54;57634.44;;;-135.08
66027;BMP280;56312;55.976;37.136;2022-07-23T20:15:01;57634.44;;;-135.08
66027;BMP280;56312;55.976;37.136;2022-07-23T20:20:08;57634.44;;;-135.08
66027;BMP280;56312;55.976;37.136;2022-07-23T20:25:15;57634.44;;;-135.08
66027;BMP280;56312;55.976;37.136;2022-07-23T20:30:21;57634.44;;;-135.08
